createdAt,value
2022-07-26T00:02:05.990Z,3.40
2022-07-26T00:04:34.349Z,3.70
2022-07-26T00:07:20.019Z,3.22
2022-07-26T00:09:48.642Z,3.70
2022-07-26T00:12:16.756Z,3.38
2022-07-26T00:14:44.841Z,3.58
2022-07-26T00:17:12.928Z,3.60
2022-07-26T00:19:40.987Z,3.20
2022-07-26T00:22:27.599Z,3.70
2022-07-26T00:27:24.568Z,4.03
2022-07-26T00:29:53.778Z,3.28
2022-07-26T00:32:21.678Z,3.38
2022-07-26T00:34:49.658Z,3.47
2022-07-26T00:37:20.635Z,3.63
2022-07-26T00:39:49.349Z,3.45
2022-07-26T00:42:18.818Z,3.58
2022-07-26T00:44:48.569Z,3.10
2022-07-26T00:47:18.410Z,3.42
2022-07-26T00:49:46.584Z,3.75
2022-07-26T00:52:14.678Z,3.58
2022-07-26T00:54:46.024Z,3.90
2022-07-26T00:57:15.268Z,3.60
2022-07-26T00:59:44.760Z,3.97
2022-07-26T01:02:12.854Z,3.78
2022-07-26T01:04:45.050Z,3.63
2022-07-26T01:07:14.670Z,3.80
2022-07-26T01:09:43.288Z,3.80
2022-07-26T01:12:11.478Z,3.63
2022-07-26T01:14:42.220Z,4.38
2022-07-26T01:17:11.748Z,3.42
2022-07-26T01:19:39.760Z,4.05
2022-07-26T01:22:14.147Z,3.95
2022-07-26T01:24:42.543Z,3.83
2022-07-26T01:27:10.499Z,3.78
2022-07-26T01:29:38.541Z,3.78
2022-07-26T01:32:07.818Z,3.67
2022-07-26T01:34:35.963Z,4.20
2022-07-26T01:37:06.178Z,3.95
2022-07-26T01:39:36.088Z,3.85
2022-07-26T01:42:04.310Z,4.47
2022-07-26T01:44:32.372Z,3.90
2022-07-26T01:47:00.319Z,3.83
2022-07-26T01:49:28.337Z,3.78
2022-07-26T01:51:56.264Z,3.50
2022-07-26T01:54:24.660Z,3.40
2022-07-26T01:56:54.180Z,3.90
2022-07-26T01:59:22.357Z,3.58
2022-07-26T02:01:50.424Z,3.65
2022-07-26T02:04:36.948Z,3.60
2022-07-26T02:07:05.619Z,3.33
2022-07-26T02:09:41.065Z,3.72
2022-07-26T02:12:11.058Z,4.07
2022-07-26T02:14:39.517Z,4.30
2022-07-26T02:17:07.488Z,3.90
2022-07-26T02:19:36.016Z,4.13
2022-07-26T02:22:04.691Z,4.22
2022-07-26T02:24:33.109Z,3.63
2022-07-26T02:27:02.752Z,3.97
2022-07-26T02:29:32.782Z,4.63
2022-07-26T02:32:01.212Z,4.20
2022-07-26T02:34:33.802Z,5.20
2022-07-26T02:37:02.555Z,3.90
2022-07-26T02:39:30.923Z,3.58
2022-07-26T02:42:01.917Z,3.92
2022-07-26T02:44:32.102Z,3.97
2022-07-26T02:47:00.517Z,3.70
2022-07-26T02:49:28.861Z,3.88
2022-07-26T02:51:57.308Z,3.55
2022-07-26T02:54:25.605Z,3.95
2022-07-26T02:56:53.972Z,3.53
2022-07-26T02:59:22.155Z,3.88
2022-07-26T03:01:51.973Z,3.50
2022-07-26T03:04:20.491Z,3.58
2022-07-26T03:06:48.872Z,3.58
2022-07-26T03:09:17.211Z,3.58
2022-07-26T03:11:45.404Z,3.88
2022-07-26T03:14:13.752Z,3.67
2022-07-26T03:16:42.072Z,3.55
2022-07-26T03:19:12.043Z,3.63
2022-07-26T03:21:40.311Z,3.60
2022-07-26T03:24:08.905Z,3.85
2022-07-26T03:26:37.675Z,3.83
2022-07-26T03:29:06.063Z,3.55
2022-07-26T03:31:36.761Z,4.15
2022-07-26T03:34:05.550Z,4.38
2022-07-26T03:36:35.792Z,3.70
2022-07-26T03:39:04.354Z,3.55
2022-07-26T03:41:33.091Z,3.70
2022-07-26T03:44:01.395Z,3.67
2022-07-26T03:46:29.792Z,3.78
2022-07-26T03:48:58.877Z,3.80
2022-07-26T03:51:27.129Z,3.80
2022-07-26T03:53:57.495Z,4.18
2022-07-26T03:56:34.803Z,4.53
2022-07-26T03:59:05.854Z,4.63
2022-07-26T04:01:40.161Z,4.85
2022-07-26T04:04:09.888Z,4.70
2022-07-26T04:06:39.427Z,4.45
2022-07-26T04:09:09.714Z,5.03
2022-07-26T04:11:38.912Z,4.72
2022-07-26T04:14:07.575Z,4.57
2022-07-26T04:16:40.048Z,4.57
2022-07-26T04:19:11.461Z,4.50
2022-07-26T04:21:39.752Z,4.00
2022-07-26T04:24:10.523Z,4.15
2022-07-26T04:26:39.312Z,4.25
2022-07-26T04:29:08.655Z,4.20
2022-07-26T04:31:39.323Z,4.30
2022-07-26T04:34:07.795Z,4.80
2022-07-26T04:36:36.356Z,4.45
2022-07-26T04:39:04.544Z,4.47
2022-07-26T04:41:34.315Z,3.92
2022-07-26T04:44:02.501Z,3.80
2022-07-26T04:46:31.007Z,3.80
2022-07-26T04:48:59.198Z,4.15
2022-07-26T04:51:27.670Z,4.07
2022-07-26T04:54:20.765Z,3.97
2022-07-26T04:56:51.056Z,4.20
2022-07-26T04:59:21.848Z,3.75
2022-07-26T05:01:50.692Z,4.00
2022-07-26T05:04:19.071Z,3.50
2022-07-26T05:06:47.243Z,3.70
2022-07-26T05:09:15.552Z,3.55
2022-07-26T05:11:43.790Z,4.07
2022-07-26T05:14:13.712Z,4.35
2022-07-26T05:16:44.359Z,3.80
2022-07-26T05:19:14.396Z,4.00
2022-07-26T05:21:42.586Z,4.45
2022-07-26T05:24:11.298Z,4.22
2022-07-26T05:26:40.023Z,4.70
2022-07-26T05:29:08.624Z,4.00
2022-07-26T05:31:38.402Z,5.10
2022-07-26T05:34:07.197Z,4.80
2022-07-26T05:36:35.611Z,5.18
2022-07-26T05:39:04.202Z,5.65
2022-07-26T05:41:32.924Z,7.85
2022-07-26T05:44:01.568Z,5.90
2022-07-26T05:46:29.732Z,5.10
2022-07-26T05:48:59.839Z,4.45
2022-07-26T05:51:30.546Z,4.50
2022-07-26T05:53:58.876Z,4.80
2022-07-26T05:56:27.221Z,4.60
2022-07-26T05:58:55.711Z,5.00
2022-07-26T06:01:24.142Z,4.68
2022-07-26T06:03:52.661Z,5.55
2022-07-26T06:06:22.964Z,5.13
2022-07-26T06:08:51.528Z,4.97
2022-07-26T06:11:19.738Z,4.70
2022-07-26T06:13:49.288Z,4.68
2022-07-26T06:16:19.179Z,4.07
2022-07-26T06:18:47.222Z,4.70
2022-07-26T06:21:15.220Z,4.45
2022-07-26T06:23:44.762Z,4.65
2022-07-26T06:26:12.919Z,4.30
2022-07-26T06:28:41.442Z,4.90
2022-07-26T06:31:10.124Z,4.63
2022-07-26T06:33:38.072Z,4.75
2022-07-26T06:36:08.839Z,4.35
2022-07-26T06:38:37.152Z,5.45
2022-07-26T06:41:07.176Z,5.53
2022-07-26T06:43:35.473Z,5.18
2022-07-26T06:46:03.636Z,4.50
2022-07-26T06:48:31.913Z,5.18
2022-07-26T06:51:00.023Z,4.22
2022-07-26T06:53:28.094Z,4.90
2022-07-26T06:55:56.194Z,5.13
2022-07-26T06:58:25.863Z,4.70
2022-07-26T07:00:53.906Z,4.75
2022-07-26T07:03:22.235Z,4.53
2022-07-26T07:05:50.498Z,4.68
2022-07-26T07:08:18.729Z,4.35
2022-07-26T07:10:48.172Z,4.40
2022-07-26T07:13:19.025Z,4.63
2022-07-26T07:15:49.551Z,4.45
2022-07-26T07:18:17.885Z,4.00
2022-07-26T07:20:45.993Z,4.30
2022-07-26T07:23:14.083Z,4.22
2022-07-26T07:25:44.754Z,4.15
2022-07-26T07:28:13.174Z,3.95
2022-07-26T07:30:41.474Z,4.15
2022-07-26T07:33:22.409Z,3.83
2022-07-26T07:35:52.499Z,4.07
2022-07-26T07:38:22.280Z,4.38
2022-07-26T07:40:51.326Z,4.05
2022-07-26T07:43:19.409Z,4.43
2022-07-26T07:45:48.377Z,4.07
2022-07-26T07:48:20.921Z,3.85
2022-07-26T07:50:49.024Z,4.40
2022-07-26T07:53:17.105Z,4.43
2022-07-26T07:55:48.357Z,4.28
2022-07-26T07:58:18.860Z,4.03
2022-07-26T08:00:48.501Z,4.70
2022-07-26T08:03:19.115Z,4.30
2022-07-26T08:05:49.633Z,5.22
2022-07-26T08:08:19.217Z,5.05
2022-07-26T08:10:53.012Z,4.93
2022-07-26T08:13:22.073Z,5.25
2022-07-26T08:15:50.908Z,4.60
2022-07-26T08:18:22.481Z,5.40
2022-07-26T08:20:52.046Z,5.82
2022-07-26T08:23:20.788Z,5.13
2022-07-26T08:25:58.583Z,5.43
2022-07-26T08:31:20.346Z,5.35
2022-07-26T08:33:50.288Z,5.63
2022-07-26T08:36:18.759Z,6.07
2022-07-26T08:38:48.055Z,6.22
2022-07-26T08:41:18.439Z,6.38
2022-07-26T08:43:51.856Z,5.90
2022-07-26T08:46:25.989Z,5.25
2022-07-26T08:49:10.808Z,6.18
2022-07-26T08:51:43.405Z,5.80
2022-07-26T08:54:14.144Z,5.85
2022-07-26T08:56:50.636Z,6.18
2022-07-26T08:59:21.730Z,6.00
2022-07-26T09:01:55.821Z,6.22
2022-07-26T09:04:37.402Z,6.18
2022-07-26T09:07:11.494Z,6.60
2022-07-26T09:09:57.112Z,5.97
2022-07-26T09:12:27.127Z,5.90
2022-07-26T09:14:56.302Z,5.65
2022-07-26T09:17:26.155Z,6.07
2022-07-26T09:20:09.716Z,6.15
2022-07-26T09:22:38.760Z,5.70
2022-07-26T09:25:21.907Z,5.85
2022-07-26T09:27:50.486Z,6.15
2022-07-26T09:30:19.174Z,6.00
2022-07-26T09:32:59.035Z,6.20
2022-07-26T09:35:50.063Z,5.88
2022-07-26T09:38:17.987Z,6.43
2022-07-26T09:40:51.358Z,6.25
2022-07-26T09:43:24.014Z,6.03
2022-07-26T09:46:07.769Z,5.65
2022-07-26T09:49:09.310Z,6.50
2022-07-26T09:51:43.458Z,6.25
2022-07-26T09:54:12.959Z,5.13
2022-07-26T09:56:45.580Z,5.60
2022-07-26T09:59:16.085Z,5.43
2022-07-26T10:01:45.027Z,5.63
2022-07-26T10:04:13.838Z,5.40
2022-07-26T10:06:44.527Z,5.38
2022-07-26T10:09:13.174Z,5.20
2022-07-26T10:11:43.553Z,5.05
2022-07-26T10:14:34.829Z,4.93
2022-07-26T10:17:31.426Z,5.25
2022-07-26T10:20:27.232Z,5.53
2022-07-26T10:22:56.874Z,5.60
2022-07-26T10:25:48.153Z,5.63
2022-07-26T10:28:28.054Z,5.35
2022-07-26T10:31:30.104Z,5.25
2022-07-26T10:34:00.632Z,5.10
2022-07-26T10:36:36.782Z,5.38
2022-07-26T10:39:13.367Z,4.80
2022-07-26T10:41:45.451Z,5.20
2022-07-26T10:44:23.463Z,5.45
2022-07-26T10:47:12.053Z,5.53
2022-07-26T10:49:42.881Z,5.38
2022-07-26T10:52:23.149Z,5.65
2022-07-26T10:55:19.973Z,5.47
2022-07-26T11:00:21.156Z,5.50
2022-07-26T11:02:54.440Z,5.65
2022-07-26T11:05:29.534Z,5.78
2022-07-26T11:08:11.203Z,5.65
2022-07-26T11:10:43.394Z,5.93
2022-07-26T11:13:17.976Z,6.00
2022-07-26T11:15:49.707Z,5.05
2022-07-26T11:18:24.896Z,5.60
2022-07-26T11:20:55.995Z,6.10
2022-07-26T11:23:30.454Z,6.35
2022-07-26T11:26:17.465Z,6.20
2022-07-26T11:29:06.747Z,5.35
2022-07-26T11:31:51.005Z,5.57
2022-07-26T11:34:29.514Z,5.90
2022-07-26T11:36:59.384Z,5.55
2022-07-26T11:39:30.175Z,5.65
2022-07-26T11:42:04.175Z,5.82
2022-07-26T11:44:47.077Z,5.78
2022-07-26T11:47:20.773Z,5.80
2022-07-26T11:52:46.374Z,5.20
2022-07-26T11:55:25.643Z,6.13
2022-07-26T11:57:56.115Z,6.75
2022-07-26T12:00:24.894Z,5.80
2022-07-26T12:02:56.082Z,6.03
2022-07-26T12:05:25.493Z,5.80
2022-07-26T12:07:56.183Z,6.20
2022-07-26T12:10:25.073Z,5.80
2022-07-26T12:13:11.675Z,5.75
2022-07-26T12:15:48.168Z,6.20
2022-07-26T12:18:24.963Z,5.85
2022-07-26T12:21:06.625Z,5.55
2022-07-26T12:23:46.113Z,5.22
2022-07-26T12:26:22.664Z,5.75
2022-07-26T12:28:52.806Z,5.22
2022-07-26T12:31:30.106Z,5.55
2022-07-26T12:33:58.867Z,5.80
2022-07-26T12:36:29.401Z,5.40
2022-07-26T12:38:59.668Z,5.97
2022-07-26T12:41:36.211Z,5.85
2022-07-26T12:44:06.811Z,5.72
2022-07-26T12:46:35.653Z,5.25
2022-07-26T12:49:05.008Z,5.90
2022-07-26T12:51:34.254Z,5.90
2022-07-26T12:54:03.944Z,5.40
2022-07-26T12:56:32.271Z,5.35
2022-07-26T12:59:03.626Z,5.78
2022-07-26T13:01:35.842Z,5.00
2022-07-26T13:04:05.030Z,5.70
2022-07-26T13:06:33.777Z,5.55
2022-07-26T13:09:02.158Z,4.97
2022-07-26T13:11:31.248Z,5.45
2022-07-26T13:14:01.974Z,5.68
2022-07-26T13:16:30.449Z,5.90
2022-07-26T13:19:00.366Z,5.15
2022-07-26T13:21:33.298Z,5.63
2022-07-26T13:24:02.788Z,6.25
2022-07-26T13:26:31.006Z,6.55
2022-07-26T13:28:59.917Z,5.55
2022-07-26T13:31:28.298Z,5.38
2022-07-26T13:33:56.670Z,5.18
2022-07-26T13:36:26.466Z,5.07
2022-07-26T13:38:54.705Z,5.85
2022-07-26T13:41:23.226Z,6.07
2022-07-26T13:43:53.195Z,5.45
2022-07-26T13:46:21.480Z,6.03
2022-07-26T13:49:00.583Z,5.63
2022-07-26T13:51:52.182Z,5.32
2022-07-26T13:54:21.506Z,5.63
2022-07-26T13:56:49.981Z,5.65
2022-07-26T13:59:18.394Z,5.80
2022-07-26T14:01:46.959Z,5.47
2022-07-26T14:04:17.421Z,5.80
2022-07-26T14:06:47.120Z,5.60
2022-07-26T14:09:15.675Z,5.15
2022-07-26T14:11:43.716Z,5.60
2022-07-26T14:14:12.533Z,6.20
2022-07-26T14:16:41.101Z,5.53
2022-07-26T14:19:09.474Z,5.80
2022-07-26T14:21:48.929Z,5.38
2022-07-26T14:24:28.945Z,5.70
2022-07-26T14:26:59.445Z,5.47
2022-07-26T14:29:28.755Z,5.38
2022-07-26T14:31:57.090Z,5.35
2022-07-26T14:34:25.659Z,5.30
2022-07-26T14:36:53.815Z,5.13
2022-07-26T14:39:22.279Z,5.28
2022-07-26T14:41:52.049Z,5.53
2022-07-26T14:44:20.472Z,5.32
2022-07-26T14:46:49.321Z,5.28
2022-07-26T14:49:18.043Z,5.30
2022-07-26T14:51:57.096Z,5.20
2022-07-26T14:54:25.313Z,5.28
2022-07-26T14:56:55.110Z,5.13
2022-07-26T14:59:23.328Z,5.43
2022-07-26T15:01:51.650Z,4.90
2022-07-26T15:04:20.192Z,4.80
2022-07-26T15:06:48.323Z,5.00
2022-07-26T15:09:16.782Z,5.13
2022-07-26T15:11:45.004Z,4.97
2022-07-26T15:14:14.950Z,5.28
2022-07-26T15:16:43.228Z,4.93
2022-07-26T15:19:11.595Z,4.97
2022-07-26T15:21:39.770Z,5.80
2022-07-26T15:24:09.920Z,4.57
2022-07-26T15:26:41.082Z,5.65
2022-07-26T15:29:15.347Z,4.78
2022-07-26T15:31:44.981Z,5.32
2022-07-26T15:34:13.264Z,5.38
2022-07-26T15:36:41.813Z,4.63
2022-07-26T15:39:18.318Z,4.97
2022-07-26T15:41:47.673Z,4.60
2022-07-26T15:44:19.322Z,4.50
2022-07-26T15:46:49.673Z,4.95
2022-07-26T15:49:18.748Z,4.63
2022-07-26T15:51:47.225Z,4.95
2022-07-26T15:54:16.624Z,4.78
2022-07-26T15:56:45.005Z,4.50
2022-07-26T15:59:15.928Z,4.45
2022-07-26T16:01:45.733Z,4.72
2022-07-26T16:04:14.664Z,4.97
2022-07-26T16:06:43.081Z,4.43
2022-07-26T16:09:17.674Z,4.50
2022-07-26T16:14:15.126Z,4.53
2022-07-26T16:16:45.847Z,4.78
2022-07-26T16:19:14.619Z,4.13
2022-07-26T16:21:43.538Z,4.25
2022-07-26T16:24:21.999Z,4.22
2022-07-26T16:26:51.549Z,4.25
2022-07-26T16:29:19.547Z,4.30
2022-07-26T16:31:49.571Z,4.00
2022-07-26T16:34:17.821Z,4.18
2022-07-26T16:36:45.979Z,4.45
2022-07-26T16:39:14.894Z,4.22
2022-07-26T16:41:43.724Z,4.65
2022-07-26T16:44:12.579Z,3.85
2022-07-26T16:46:44.730Z,4.47
2022-07-26T16:49:17.591Z,3.90
2022-07-26T16:51:46.052Z,4.70
2022-07-26T16:54:14.461Z,3.75
2022-07-26T16:56:42.721Z,4.03
2022-07-26T16:59:11.369Z,4.10
2022-07-26T17:01:40.130Z,4.78
2022-07-26T17:04:08.244Z,4.10
2022-07-26T17:06:56.480Z,4.55
2022-07-26T17:09:32.135Z,3.92
2022-07-26T17:12:05.905Z,3.95
2022-07-26T17:14:34.734Z,4.00
2022-07-26T17:17:03.318Z,3.90
2022-07-26T17:19:31.668Z,4.07
2022-07-26T17:22:01.436Z,3.85
2022-07-26T17:24:29.771Z,3.88
2022-07-26T17:26:57.969Z,3.85
2022-07-26T17:29:40.688Z,3.80
2022-07-26T17:32:11.130Z,3.92
2022-07-26T17:34:39.815Z,4.25
2022-07-26T17:37:10.364Z,4.05
2022-07-26T17:39:51.587Z,4.15
2022-07-26T17:42:22.029Z,3.92
2022-07-26T17:44:51.052Z,3.97
2022-07-26T17:47:29.009Z,4.50
2022-07-26T17:50:26.431Z,3.90
2022-07-26T17:52:52.669Z,3.78
2022-07-26T17:55:21.473Z,4.38
2022-07-26T17:57:50.658Z,3.85
2022-07-26T18:00:20.591Z,4.07
2022-07-26T18:02:49.319Z,3.83
2022-07-26T18:05:19.359Z,3.85
2022-07-26T18:07:47.835Z,4.00
2022-07-26T18:10:17.683Z,4.43
2022-07-26T18:12:45.952Z,4.30
2022-07-26T18:15:14.032Z,4.43
2022-07-26T18:17:42.415Z,4.35
2022-07-26T18:20:13.265Z,4.60
2022-07-26T18:22:45.630Z,4.30
2022-07-26T18:25:14.085Z,4.05
2022-07-26T18:27:43.550Z,4.43
2022-07-26T18:30:12.105Z,4.85
2022-07-26T18:32:40.218Z,4.72
2022-07-26T18:35:08.791Z,4.70
2022-07-26T18:37:36.847Z,4.78
2022-07-26T18:40:06.604Z,4.53
2022-07-26T18:42:36.498Z,4.70
2022-07-26T18:45:07.439Z,5.03
2022-07-26T18:47:35.729Z,5.60
2022-07-26T18:50:09.098Z,4.97
2022-07-26T18:52:37.809Z,5.25
2022-07-26T18:55:07.840Z,4.30
2022-07-26T18:57:37.132Z,5.40
2022-07-26T19:00:08.497Z,4.88
2022-07-26T19:02:37.129Z,4.90
2022-07-26T19:05:06.223Z,4.93
2022-07-26T19:07:34.519Z,6.07
2022-07-26T19:10:02.672Z,5.15
2022-07-26T19:12:30.685Z,5.07
2022-07-26T19:15:00.549Z,4.93
2022-07-26T19:17:32.873Z,5.15
2022-07-26T19:20:02.190Z,4.90
2022-07-26T19:22:33.533Z,4.78
2022-07-26T19:25:02.365Z,5.13
2022-07-26T19:27:30.599Z,5.13
2022-07-26T19:29:58.861Z,5.13
2022-07-26T19:32:31.726Z,4.97
2022-07-26T19:35:02.944Z,5.40
2022-07-26T19:37:31.327Z,5.05
2022-07-26T19:40:01.262Z,5.07
2022-07-26T19:42:30.227Z,5.50
2022-07-26T19:44:58.821Z,5.20
2022-07-26T19:47:27.247Z,5.70
2022-07-26T19:49:56.286Z,5.22
2022-07-26T19:52:29.294Z,5.18
2022-07-26T19:54:57.665Z,5.82
2022-07-26T19:57:25.701Z,5.55
2022-07-26T19:59:54.685Z,4.88
2022-07-26T20:02:23.305Z,4.93
2022-07-26T20:04:51.587Z,4.97
2022-07-26T20:07:19.996Z,5.40
2022-07-26T20:09:50.977Z,5.30
2022-07-26T20:12:22.127Z,5.53
2022-07-26T20:14:50.324Z,5.80
2022-07-26T20:17:18.507Z,5.78
2022-07-26T20:19:47.277Z,5.75
2022-07-26T20:22:15.676Z,5.90
2022-07-26T20:24:45.839Z,5.38
2022-07-26T20:27:17.485Z,7.50
2022-07-26T20:29:45.597Z,5.40
2022-07-26T20:32:20.628Z,6.43
2022-07-26T20:34:49.184Z,5.73
2022-07-26T20:37:17.630Z,5.53
2022-07-26T20:39:45.824Z,4.97
2022-07-26T20:42:21.526Z,5.80
2022-07-26T20:44:53.489Z,6.30
2022-07-26T20:47:23.412Z,6.50
2022-07-26T20:49:51.506Z,5.95
2022-07-26T20:52:19.796Z,6.85
2022-07-26T20:54:49.940Z,6.22
2022-07-26T20:57:22.668Z,6.10
2022-07-26T20:59:50.872Z,6.00
2022-07-26T21:02:19.203Z,5.78
2022-07-26T21:04:47.206Z,5.60
2022-07-26T21:07:15.809Z,6.00
2022-07-26T21:09:43.858Z,5.70
2022-07-26T21:12:11.962Z,6.20
2022-07-26T21:14:41.486Z,6.20
2022-07-26T21:17:12.170Z,6.55
2022-07-26T21:19:40.897Z,6.10
2022-07-26T21:22:09.355Z,5.53
2022-07-26T21:24:37.369Z,5.43
2022-07-26T21:27:06.256Z,5.90
2022-07-26T21:29:38.070Z,5.88
2022-07-26T21:32:09.250Z,6.88
2022-07-26T21:34:37.640Z,6.78
2022-07-26T21:37:06.459Z,6.78
2022-07-26T21:39:34.855Z,6.60
2022-07-26T21:42:03.192Z,6.90
2022-07-26T21:44:32.819Z,6.25
2022-07-26T21:47:01.305Z,7.57
2022-07-26T21:49:34.918Z,5.75
2022-07-26T21:52:03.411Z,6.72
2022-07-26T21:54:31.568Z,5.88
2022-07-26T21:57:00.209Z,6.15
2022-07-26T21:59:28.290Z,6.28
2022-07-26T22:01:56.360Z,5.80
2022-07-26T22:04:25.464Z,5.80
2022-07-26T22:06:58.023Z,6.13
2022-07-26T22:09:26.326Z,6.22
2022-07-26T22:11:54.166Z,5.97
2022-07-26T22:14:28.601Z,5.50
2022-07-26T22:17:00.132Z,5.97
2022-07-26T22:19:30.515Z,6.60
2022-07-26T22:22:02.795Z,6.07
2022-07-26T22:24:31.338Z,5.90
2022-07-26T22:26:59.320Z,6.00
2022-07-26T22:29:27.337Z,5.80
2022-07-26T22:32:07.245Z,5.47
2022-07-26T22:34:35.218Z,6.03
2022-07-26T22:37:05.999Z,5.43
2022-07-26T22:39:36.936Z,5.85
2022-07-26T22:42:15.465Z,6.20
2022-07-26T22:44:44.045Z,5.97
2022-07-26T22:47:11.979Z,5.88
2022-07-26T22:49:40.048Z,5.55
2022-07-26T22:52:09.630Z,5.70
2022-07-26T22:54:37.613Z,5.53
2022-07-26T22:57:05.842Z,5.55
2022-07-26T22:59:33.762Z,6.22
2022-07-26T23:02:01.784Z,7.18
2022-07-26T23:04:29.919Z,6.05
2022-07-26T23:06:59.134Z,5.47
2022-07-26T23:09:29.781Z,6.63
2022-07-26T23:11:57.862Z,5.35
2022-07-26T23:14:26.412Z,5.18
2022-07-26T23:16:54.568Z,5.15
2022-07-26T23:19:22.771Z,5.20
2022-07-26T23:21:50.831Z,4.88
2022-07-26T23:24:18.872Z,4.85
2022-07-26T23:26:48.263Z,4.45
2022-07-26T23:29:16.453Z,4.78
2022-07-26T23:31:44.418Z,5.28
2022-07-26T23:34:12.421Z,5.32
2022-07-26T23:36:40.431Z,5.00
2022-07-26T23:39:08.672Z,4.53
2022-07-26T23:41:36.912Z,4.70
2022-07-26T23:44:06.923Z,4.75
2022-07-26T23:46:35.062Z,4.85
2022-07-26T23:49:04.962Z,4.75
2022-07-26T23:51:33.055Z,4.50
2022-07-26T23:54:01.093Z,4.72
2022-07-26T23:56:29.022Z,4.55
2022-07-26T23:58:57.222Z,4.80
